sensor_id;sensor_type;location;lat;lon;timestamp;temperature;humidity
9971;DHT22;5026;51.494;11.974;2022-09-03T00:01:39;15.80;75.70
9971;DHT22;5026;51.494;11.974;2022-09-03T00:04:13;15.80;75.90
9971;DHT22;5026;51.494;11.974;2022-09-03T00:06:47;15.70;76.10
9971;DHT22;5026;51.494;11.974;2022-09-03T00:09:22;15.70;76.30
9971;DHT22;5026;51.494;11.974;2022-09-03T00:11:55;15.60;76.50
9971;DHT22;5026;51.494;11.974;2022-09-03T00:14:27;15.60;76.70
9971;DHT22;5026;51.494;11.974;2022-09-03T00:17:02;15.50;77.00
9971;DHT22;5026;51.494;11.974;2022-09-03T00:19:36;15.50;77.30
9971;DHT22;5026;51.494;11.974;2022-09-03T00:22:10;15.40;77.60
9971;DHT22;5026;51.494;11.974;2022-09-03T00:24:41;15.40;77.90
9971;DHT22;5026;51.494;11.974;2022-09-03T00:27:13;15.40;78.20
9971;DHT22;5026;51.494;11.974;2022-09-03T00:29:45;15.40;78.50
9971;DHT22;5026;51.494;11.974;2022-09-03T00:32:17;15.40;78.70
9971;DHT22;5026;51.494;11.974;2022-09-03T00:34:49;15.40;78.80
9971;DHT22;5026;51.494;11.974;2022-09-03T00:37:17;15.30;79.00
9971;DHT22;5026;51.494;11.974;2022-09-03T00:39:44;15.30;79.20
9971;DHT22;5026;51.494;11.974;2022-09-03T00:42:22;15.40;79.50
9971;DHT22;5026;51.494;11.974;2022-09-03T00:45:01;15.30;79.70
9971;DHT22;5026;51.494;11.974;2022-09-03T00:47:34;15.30;80.00
9971;DHT22;5026;51.494;11.974;2022-09-03T00:50:11;15.20;80.20
9971;DHT22;5026;51.494;11.974;2022-09-03T00:52:45;15.30;80.50
9971;DHT22;5026;51.494;11.974;2022-09-03T00:55:23;15.30;80.70
9971;DHT22;5026;51.494;11.974;2022-09-03T00:58:02;15.20;81.00
9971;DHT22;5026;51.494;11.974;2022-09-03T01:03:06;15.20;81.40
9971;DHT22;5026;51.494;11.974;2022-09-03T01:05:42;15.20;81.70
9971;DHT22;5026;51.494;11.974;2022-09-03T01:08:30;15.20;82.00
9971;DHT22;5026;51.494;11.974;2022-09-03T01:11:08;15.10;82.20
9971;DHT22;5026;51.494;11.974;2022-09-03T01:13:41;15.10;82.50
9971;DHT22;5026;51.494;11.974;2022-09-03T01:16:18;15.10;82.80
9971;DHT22;5026;51.494;11.974;2022-09-03T01:18:54;15.00;83.00
9971;DHT22;5026;51.494;11.974;2022-09-03T01:24:33;15.00;83.40
9971;DHT22;5026;51.494;11.974;2022-09-03T01:27:20;15.00;83.70
9971;DHT22;5026;51.494;11.974;2022-09-03T01:29:55;15.00;83.90
9971;DHT22;5026;51.494;11.974;2022-09-03T01:32:32;15.00;84.10
9971;DHT22;5026;51.494;11.974;2022-09-03T01:35:03;12.40;82.40
9971;DHT22;5026;51.494;11.974;2022-09-03T01:37:43;14.90;84.60
9971;DHT22;5026;51.494;11.974;2022-09-03T01:40:17;14.90;84.80
9971;DHT22;5026;51.494;11.974;2022-09-03T01:42:58;14.90;85.00
9971;DHT22;5026;51.494;11.974;2022-09-03T01:45:38;14.90;85.20
9971;DHT22;5026;51.494;11.974;2022-09-03T01:48:26;14.90;85.40
9971;DHT22;5026;51.494;11.974;2022-09-03T01:51:01;12.40;83.80
9971;DHT22;5026;51.494;11.974;2022-09-03T01:53:43;14.80;86.00
9971;DHT22;5026;51.494;11.974;2022-09-03T01:56:21;14.80;86.20
9971;DHT22;5026;51.494;11.974;2022-09-03T01:58:57;14.80;86.50
9971;DHT22;5026;51.494;11.974;2022-09-03T02:01:32;14.70;86.60
9971;DHT22;5026;51.494;11.974;2022-09-03T02:04:01;14.70;86.90
9971;DHT22;5026;51.494;11.974;2022-09-03T02:06:29;14.70;87.10
9971;DHT22;5026;51.494;11.974;2022-09-03T02:08:57;14.70;87.30
9971;DHT22;5026;51.494;11.974;2022-09-03T02:11:24;15.50;88.20
9971;DHT22;5026;51.494;11.974;2022-09-03T02:13:53;14.70;87.80
9971;DHT22;5026;51.494;11.974;2022-09-03T02:16:27;14.60;87.90
9971;DHT22;5026;51.494;11.974;2022-09-03T02:18:59;14.60;88.20
9971;DHT22;5026;51.494;11.974;2022-09-03T02:21:30;14.60;88.40
9971;DHT22;5026;51.494;11.974;2022-09-03T02:26:26;14.60;88.90
9971;DHT22;5026;51.494;11.974;2022-09-03T02:28:53;14.60;89.20
9971;DHT22;5026;51.494;11.974;2022-09-03T02:31:21;14.50;89.30
9971;DHT22;5026;51.494;11.974;2022-09-03T02:33:49;14.50;89.50
9971;DHT22;5026;51.494;11.974;2022-09-03T02:36:20;14.50;89.60
9971;DHT22;5026;51.494;11.974;2022-09-03T02:38:50;14.50;89.80
9971;DHT22;5026;51.494;11.974;2022-09-03T02:43:46;14.50;90.00
9971;DHT22;5026;51.494;11.974;2022-09-03T02:46:19;14.50;90.10
9971;DHT22;5026;51.494;11.974;2022-09-03T02:48:48;14.50;90.10
9971;DHT22;5026;51.494;11.974;2022-09-03T02:51:14;14.50;90.20
9971;DHT22;5026;51.494;11.974;2022-09-03T02:53:43;14.40;90.30
9971;DHT22;5026;51.494;11.974;2022-09-03T02:56:10;14.40;90.40
9971;DHT22;5026;51.494;11.974;2022-09-03T03:01:05;14.30;90.60
9971;DHT22;5026;51.494;11.974;2022-09-03T03:03:33;14.20;90.70
9971;DHT22;5026;51.494;11.974;2022-09-03T03:06:01;14.20;90.90
9971;DHT22;5026;51.494;11.974;2022-09-03T03:11:00;14.10;91.10
9971;DHT22;5026;51.494;11.974;2022-09-03T03:13:28;14.00;91.30
9971;DHT22;5026;51.494;11.974;2022-09-03T03:15:56;14.00;91.40
9971;DHT22;5026;51.494;11.974;2022-09-03T03:20:50;13.90;91.70
9971;DHT22;5026;51.494;11.974;2022-09-03T03:23:19;13.80;91.80
9971;DHT22;5026;51.494;11.974;2022-09-03T03:25:46;13.80;91.90
9971;DHT22;5026;51.494;11.974;2022-09-03T03:28:14;13.70;91.90
9971;DHT22;5026;51.494;11.974;2022-09-03T03:30:43;13.70;92.10
9971;DHT22;5026;51.494;11.974;2022-09-03T03:33:13;13.60;92.10
9971;DHT22;5026;51.494;11.974;2022-09-03T03:40:34;13.50;92.40
9971;DHT22;5026;51.494;11.974;2022-09-03T03:45:31;13.50;92.60
9971;DHT22;5026;51.494;11.974;2022-09-03T03:47:58;13.50;92.70
9971;DHT22;5026;51.494;11.974;2022-09-03T03:52:52;13.40;92.90
9971;DHT22;5026;51.494;11.974;2022-09-03T04:00:15;13.30;93.10
9971;DHT22;5026;51.494;11.974;2022-09-03T04:02:43;13.30;93.20
9971;DHT22;5026;51.494;11.974;2022-09-03T04:10:08;13.20;93.30
9971;DHT22;5026;51.494;11.974;2022-09-03T04:35:03;12.90;94.10
9971;DHT22;5026;51.494;11.974;2022-09-03T04:52:14;13.00;94.40
9971;DHT22;5026;51.494;11.974;2022-09-03T04:54:41;13.00;94.40
9971;DHT22;5026;51.494;11.974;2022-09-03T05:04:29;12.90;94.50
9971;DHT22;5026;51.494;11.974;2022-09-03T05:09:25;12.90;94.70
9971;DHT22;5026;51.494;11.974;2022-09-03T05:26:39;13.10;94.90
9971;DHT22;5026;51.494;11.974;2022-09-03T05:31:35;13.10;94.90
9971;DHT22;5026;51.494;11.974;2022-09-03T05:34:04;13.20;94.90
9971;DHT22;5026;51.494;11.974;2022-09-03T05:36:33;13.20;94.90
9971;DHT22;5026;51.494;11.974;2022-09-03T05:43:56;13.40;94.80
9971;DHT22;5026;51.494;11.974;2022-09-03T05:46:25;13.40;94.80
9971;DHT22;5026;51.494;11.974;2022-09-03T05:48:56;13.40;94.80
9971;DHT22;5026;51.494;11.974;2022-09-03T05:56:21;13.60;94.70
9971;DHT22;5026;51.494;11.974;2022-09-03T05:58:50;13.70;94.70
9971;DHT22;5026;51.494;11.974;2022-09-03T06:01:20;13.80;94.40
9971;DHT22;5026;51.494;11.974;2022-09-03T06:03:53;14.00;94.30
9971;DHT22;5026;51.494;11.974;2022-09-03T06:06:21;14.20;94.20
9971;DHT22;5026;51.494;11.974;2022-09-03T06:11:17;14.20;94.20
9971;DHT22;5026;51.494;11.974;2022-09-03T06:13:44;14.00;94.20
9971;DHT22;5026;51.494;11.974;2022-09-03T06:16:12;14.00;94.30
9971;DHT22;5026;51.494;11.974;2022-09-03T06:18:40;14.10;94.30
9971;DHT22;5026;51.494;11.974;2022-09-03T06:21:07;14.30;94.20
9971;DHT22;5026;51.494;11.974;2022-09-03T06:23:34;14.40;94.10
9971;DHT22;5026;51.494;11.974;2022-09-03T06:26:03;14.40;94.00
9971;DHT22;5026;51.494;11.974;2022-09-03T06:28:30;14.60;94.10
9971;DHT22;5026;51.494;11.974;2022-09-03T06:30:59;14.40;93.90
9971;DHT22;5026;51.494;11.974;2022-09-03T06:33:27;14.60;93.90
9971;DHT22;5026;51.494;11.974;2022-09-03T06:35:58;14.60;93.90
9971;DHT22;5026;51.494;11.974;2022-09-03T06:38:26;18.10;92.50
9971;DHT22;5026;51.494;11.974;2022-09-03T06:40:54;21.40;89.50
9971;DHT22;5026;51.494;11.974;2022-09-03T06:43:22;22.70;82.60
9971;DHT22;5026;51.494;11.974;2022-09-03T06:45:53;23.60;79.10
9971;DHT22;5026;51.494;11.974;2022-09-03T06:48:20;22.90;77.50
9971;DHT22;5026;51.494;11.974;2022-09-03T06:50:53;24.00;77.40
9971;DHT22;5026;51.494;11.974;2022-09-03T06:53:29;27.20;71.70
9971;DHT22;5026;51.494;11.974;2022-09-03T06:55:57;30.40;66.20
9971;DHT22;5026;51.494;11.974;2022-09-03T06:58:27;26.10;60.30
9971;DHT22;5026;51.494;11.974;2022-09-03T07:01:01;28.70;62.50
9971;DHT22;5026;51.494;11.974;2022-09-03T07:03:28;27.30;60.90
9971;DHT22;5026;51.494;11.974;2022-09-03T07:05:59;24.50;63.30
9971;DHT22;5026;51.494;11.974;2022-09-03T07:08:28;24.90;64.60
9971;DHT22;5026;51.494;11.974;2022-09-03T07:10:57;25.00;64.40
9971;DHT22;5026;51.494;11.974;2022-09-03T07:15:58;26.10;62.90
9971;DHT22;5026;51.494;11.974;2022-09-03T07:20:57;26.80;63.20
9971;DHT22;5026;51.494;11.974;2022-09-03T07:25:55;32.80;56.80
9971;DHT22;5026;51.494;11.974;2022-09-03T07:28:23;27.10;57.10
9971;DHT22;5026;51.494;11.974;2022-09-03T07:30:50;29.10;59.50
9971;DHT22;5026;51.494;11.974;2022-09-03T07:35:45;30.60;57.40
9971;DHT22;5026;51.494;11.974;2022-09-03T07:38:16;28.30;56.90
9971;DHT22;5026;51.494;11.974;2022-09-03T07:40:43;28.90;56.50
9971;DHT22;5026;51.494;11.974;2022-09-03T07:43:13;28.90;58.80
9971;DHT22;5026;51.494;11.974;2022-09-03T07:45:40;33.80;55.10
9971;DHT22;5026;51.494;11.974;2022-09-03T07:48:10;33.80;55.50
9971;DHT22;5026;51.494;11.974;2022-09-03T07:50:37;32.40;51.90
9971;DHT22;5026;51.494;11.974;2022-09-03T07:53:04;33.10;50.80
9971;DHT22;5026;51.494;11.974;2022-09-03T07:55:32;29.10;54.10
9971;DHT22;5026;51.494;11.974;2022-09-03T08:00:28;34.40;49.50
9971;DHT22;5026;51.494;11.974;2022-09-03T08:02:57;35.40;47.90
9971;DHT22;5026;51.494;11.974;2022-09-03T08:05:31;33.50;50.10
9971;DHT22;5026;51.494;11.974;2022-09-03T08:07:58;34.90;47.70
9971;DHT22;5026;51.494;11.974;2022-09-03T08:10:25;37.40;46.40
9971;DHT22;5026;51.494;11.974;2022-09-03T08:12:55;36.50;44.60
9971;DHT22;5026;51.494;11.974;2022-09-03T08:15:21;36.30;45.10
9971;DHT22;5026;51.494;11.974;2022-09-03T08:17:50;36.50;43.90
9971;DHT22;5026;51.494;11.974;2022-09-03T08:22:44;31.50;49.40
9971;DHT22;5026;51.494;11.974;2022-09-03T08:25:11;31.70;48.90
9971;DHT22;5026;51.494;11.974;2022-09-03T08:27:38;32.70;47.60
9971;DHT22;5026;51.494;11.974;2022-09-03T08:30:06;29.50;49.40
9971;DHT22;5026;51.494;11.974;2022-09-03T08:32:36;32.70;49.10
9971;DHT22;5026;51.494;11.974;2022-09-03T08:35:06;34.30;47.50
9971;DHT22;5026;51.494;11.974;2022-09-03T08:37:33;31.30;45.90
9971;DHT22;5026;51.494;11.974;2022-09-03T08:40:01;29.90;48.00
9971;DHT22;5026;51.494;11.974;2022-09-03T08:42:41;26.70;50.90
9971;DHT22;5026;51.494;11.974;2022-09-03T08:45:14;28.50;52.50
9971;DHT22;5026;51.494;11.974;2022-09-03T08:47:44;30.40;50.80
9971;DHT22;5026;51.494;11.974;2022-09-03T08:50:20;30.50;50.70
9971;DHT22;5026;51.494;11.974;2022-09-03T08:52:51;32.20;49.10
9971;DHT22;5026;51.494;11.974;2022-09-03T08:55:24;32.60;48.20
9971;DHT22;5026;51.494;11.974;2022-09-03T08:57:55;30.70;49.20
9971;DHT22;5026;51.494;11.974;2022-09-03T09:00:24;29.00;48.90
9971;DHT22;5026;51.494;11.974;2022-09-03T09:03:05;25.50;51.80
9971;DHT22;5026;51.494;11.974;2022-09-03T09:05:42;23.70;54.90
9971;DHT22;5026;51.494;11.974;2022-09-03T09:08:17;23.40;54.10
9971;DHT22;5026;51.494;11.974;2022-09-03T09:10:47;24.10;54.50
9971;DHT22;5026;51.494;11.974;2022-09-03T09:13:22;22.90;55.10
9971;DHT22;5026;51.494;11.974;2022-09-03T09:15:58;23.30;54.80
9971;DHT22;5026;51.494;11.974;2022-09-03T09:18:38;24.50;53.80
9971;DHT22;5026;51.494;11.974;2022-09-03T09:21:11;25.20;52.70
9971;DHT22;5026;51.494;11.974;2022-09-03T09:23:42;25.60;52.00
9971;DHT22;5026;51.494;11.974;2022-09-03T09:26:12;25.10;51.90
9971;DHT22;5026;51.494;11.974;2022-09-03T09:28:41;23.30;53.30
9971;DHT22;5026;51.494;11.974;2022-09-03T09:31:10;23.10;52.10
9971;DHT22;5026;51.494;11.974;2022-09-03T09:33:40;23.30;53.40
9971;DHT22;5026;51.494;11.974;2022-09-03T09:36:10;22.90;53.40
9971;DHT22;5026;51.494;11.974;2022-09-03T09:38:40;23.50;54.20
9971;DHT22;5026;51.494;11.974;2022-09-03T09:41:09;24.20;52.50
9971;DHT22;5026;51.494;11.974;2022-09-03T09:43:36;24.50;50.90
9971;DHT22;5026;51.494;11.974;2022-09-03T09:46:08;24.80;50.90
9971;DHT22;5026;51.494;11.974;2022-09-03T09:48:38;24.80;51.20
9971;DHT22;5026;51.494;11.974;2022-09-03T09:51:11;24.80;51.10
9971;DHT22;5026;51.494;11.974;2022-09-03T09:53:38;23.50;50.60
9971;DHT22;5026;51.494;11.974;2022-09-03T09:56:06;21.80;53.90
9971;DHT22;5026;51.494;11.974;2022-09-03T09:58:34;21.80;54.70
9971;DHT22;5026;51.494;11.974;2022-09-03T10:01:03;21.20;55.50
9971;DHT22;5026;51.494;11.974;2022-09-03T10:03:40;21.10;55.10
9971;DHT22;5026;51.494;11.974;2022-09-03T10:06:13;20.80;55.40
9971;DHT22;5026;51.494;11.974;2022-09-03T10:09:06;21.10;55.40
9971;DHT22;5026;51.494;11.974;2022-09-03T10:11:33;20.90;57.10
9971;DHT22;5026;51.494;11.974;2022-09-03T10:14:03;21.00;57.50
9971;DHT22;5026;51.494;11.974;2022-09-03T10:16:39;20.70;58.00
9971;DHT22;5026;51.494;11.974;2022-09-03T10:19:10;20.80;58.20
9971;DHT22;5026;51.494;11.974;2022-09-03T10:21:44;20.90;58.30
9971;DHT22;5026;51.494;11.974;2022-09-03T10:24:29;21.10;58.60
9971;DHT22;5026;51.494;11.974;2022-09-03T10:29:26;21.70;57.10
9971;DHT22;5026;51.494;11.974;2022-09-03T10:32:02;21.20;57.40
9971;DHT22;5026;51.494;11.974;2022-09-03T10:34:40;21.30;57.90
9971;DHT22;5026;51.494;11.974;2022-09-03T10:37:18;21.10;57.80
9971;DHT22;5026;51.494;11.974;2022-09-03T10:40:00;21.40;57.60
9971;DHT22;5026;51.494;11.974;2022-09-03T10:42:40;21.60;56.30
9971;DHT22;5026;51.494;11.974;2022-09-03T10:45:17;21.80;54.60
9971;DHT22;5026;51.494;11.974;2022-09-03T10:50:53;22.10;53.40
9971;DHT22;5026;51.494;11.974;2022-09-03T10:54:01;22.40;55.60
9971;DHT22;5026;51.494;11.974;2022-09-03T10:56:38;22.00;55.90
9971;DHT22;5026;51.494;11.974;2022-09-03T10:59:22;21.90;55.80
9971;DHT22;5026;51.494;11.974;2022-09-03T11:01:58;21.90;55.60
9971;DHT22;5026;51.494;11.974;2022-09-03T11:04:35;22.20;54.50
9971;DHT22;5026;51.494;11.974;2022-09-03T11:07:07;21.80;54.10
9971;DHT22;5026;51.494;11.974;2022-09-03T11:09:39;21.90;53.80
9971;DHT22;5026;51.494;11.974;2022-09-03T11:12:10;21.80;54.10
9971;DHT22;5026;51.494;11.974;2022-09-03T11:14:41;21.30;55.90
9971;DHT22;5026;51.494;11.974;2022-09-03T11:17:19;21.40;56.00
9971;DHT22;5026;51.494;11.974;2022-09-03T11:19:49;21.60;56.20
9971;DHT22;5026;51.494;11.974;2022-09-03T11:22:19;21.00;56.40
9971;DHT22;5026;51.494;11.974;2022-09-03T11:24:53;21.20;56.90
9971;DHT22;5026;51.494;11.974;2022-09-03T11:27:31;19.90;55.00
9971;DHT22;5026;51.494;11.974;2022-09-03T11:30:03;21.00;56.00
9971;DHT22;5026;51.494;11.974;2022-09-03T11:32:42;21.00;56.30
9971;DHT22;5026;51.494;11.974;2022-09-03T11:35:15;21.40;56.30
9971;DHT22;5026;51.494;11.974;2022-09-03T11:37:51;21.40;55.60
9971;DHT22;5026;51.494;11.974;2022-09-03T11:40:28;21.40;55.80
9971;DHT22;5026;51.494;11.974;2022-09-03T11:43:24;21.50;55.50
9971;DHT22;5026;51.494;11.974;2022-09-03T11:46:01;21.80;54.10
9971;DHT22;5026;51.494;11.974;2022-09-03T11:48:38;21.80;53.60
9971;DHT22;5026;51.494;11.974;2022-09-03T11:51:18;21.70;53.60
9971;DHT22;5026;51.494;11.974;2022-09-03T11:53:53;21.80;53.90
9971;DHT22;5026;51.494;11.974;2022-09-03T11:56:22;22.00;54.10
9971;DHT22;5026;51.494;11.974;2022-09-03T11:59:14;21.80;53.50
9971;DHT22;5026;51.494;11.974;2022-09-03T12:01:43;21.30;53.80
9971;DHT22;5026;51.494;11.974;2022-09-03T12:04:16;21.40;54.40
9971;DHT22;5026;51.494;11.974;2022-09-03T12:06:56;21.70;54.10
9971;DHT22;5026;51.494;11.974;2022-09-03T12:09:41;22.00;54.00
9971;DHT22;5026;51.494;11.974;2022-09-03T12:12:35;22.00;53.80
9971;DHT22;5026;51.494;11.974;2022-09-03T12:15:10;21.90;53.80
9971;DHT22;5026;51.494;11.974;2022-09-03T12:17:46;21.80;54.30
9971;DHT22;5026;51.494;11.974;2022-09-03T12:23:04;22.30;54.30
9971;DHT22;5026;51.494;11.974;2022-09-03T12:25:32;22.40;54.00
9971;DHT22;5026;51.494;11.974;2022-09-03T12:28:01;22.40;53.80
9971;DHT22;5026;51.494;11.974;2022-09-03T12:33:05;21.90;53.80
9971;DHT22;5026;51.494;11.974;2022-09-03T12:35:33;21.80;54.30
9971;DHT22;5026;51.494;11.974;2022-09-03T12:37:59;22.00;54.50
9971;DHT22;5026;51.494;11.974;2022-09-03T12:40:28;22.20;53.50
9971;DHT22;5026;51.494;11.974;2022-09-03T12:43:11;22.20;54.00
9971;DHT22;5026;51.494;11.974;2022-09-03T12:45:42;22.30;54.00
9971;DHT22;5026;51.494;11.974;2022-09-03T12:48:14;22.10;54.10
9971;DHT22;5026;51.494;11.974;2022-09-03T12:50:42;22.10;54.10
9971;DHT22;5026;51.494;11.974;2022-09-03T12:53:12;21.80;54.30
9971;DHT22;5026;51.494;11.974;2022-09-03T12:55:42;21.80;54.60
9971;DHT22;5026;51.494;11.974;2022-09-03T12:58:15;21.90;54.30
9971;DHT22;5026;51.494;11.974;2022-09-03T13:00:45;22.30;53.90
9971;DHT22;5026;51.494;11.974;2022-09-03T13:03:17;22.50;53.90
9971;DHT22;5026;51.494;11.974;2022-09-03T13:05:50;22.60;53.50
9971;DHT22;5026;51.494;11.974;2022-09-03T13:08:21;22.60;53.50
9971;DHT22;5026;51.494;11.974;2022-09-03T13:10:52;22.30;53.70
9971;DHT22;5026;51.494;11.974;2022-09-03T13:13:24;22.30;54.00
9971;DHT22;5026;51.494;11.974;2022-09-03T13:16:22;22.50;54.00
9971;DHT22;5026;51.494;11.974;2022-09-03T13:18:57;22.00;53.70
9971;DHT22;5026;51.494;11.974;2022-09-03T13:21:35;22.10;53.50
9971;DHT22;5026;51.494;11.974;2022-09-03T13:24:18;22.00;53.40
9971;DHT22;5026;51.494;11.974;2022-09-03T13:27:00;22.20;53.30
9971;DHT22;5026;51.494;11.974;2022-09-03T13:29:42;22.30;53.50
9971;DHT22;5026;51.494;11.974;2022-09-03T13:32:24;22.20;53.90
9971;DHT22;5026;51.494;11.974;2022-09-03T13:34:55;21.90;54.00
9971;DHT22;5026;51.494;11.974;2022-09-03T13:37:27;22.10;54.60
9971;DHT22;5026;51.494;11.974;2022-09-03T13:39:59;22.00;54.20
9971;DHT22;5026;51.494;11.974;2022-09-03T13:42:34;21.90;54.40
9971;DHT22;5026;51.494;11.974;2022-09-03T13:45:12;22.00;54.60
9971;DHT22;5026;51.494;11.974;2022-09-03T13:47:47;22.10;54.10
9971;DHT22;5026;51.494;11.974;2022-09-03T13:50:33;22.20;54.30
9971;DHT22;5026;51.494;11.974;2022-09-03T13:53:08;22.20;54.40
9971;DHT22;5026;51.494;11.974;2022-09-03T13:55:44;22.20;54.70
9971;DHT22;5026;51.494;11.974;2022-09-03T13:58:20;22.30;54.70
9971;DHT22;5026;51.494;11.974;2022-09-03T14:01:03;22.50;54.50
9971;DHT22;5026;51.494;11.974;2022-09-03T14:03:35;22.40;54.60
9971;DHT22;5026;51.494;11.974;2022-09-03T14:06:10;22.30;54.70
9971;DHT22;5026;51.494;11.974;2022-09-03T14:08:56;22.50;54.20
9971;DHT22;5026;51.494;11.974;2022-09-03T14:11:29;22.50;54.00
9971;DHT22;5026;51.494;11.974;2022-09-03T14:14:09;22.70;53.70
9971;DHT22;5026;51.494;11.974;2022-09-03T14:16:44;22.60;53.50
9971;DHT22;5026;51.494;11.974;2022-09-03T14:19:18;22.50;53.20
9971;DHT22;5026;51.494;11.974;2022-09-03T14:21:49;22.50;53.20
9971;DHT22;5026;51.494;11.974;2022-09-03T14:24:23;22.40;53.50
9971;DHT22;5026;51.494;11.974;2022-09-03T14:26:54;22.50;53.60
9971;DHT22;5026;51.494;11.974;2022-09-03T14:29:24;22.50;53.50
9971;DHT22;5026;51.494;11.974;2022-09-03T14:32:14;22.30;54.10
9971;DHT22;5026;51.494;11.974;2022-09-03T14:34:59;21.90;53.60
9971;DHT22;5026;51.494;11.974;2022-09-03T14:37:39;22.20;54.80
9971;DHT22;5026;51.494;11.974;2022-09-03T14:40:12;22.20;54.90
9971;DHT22;5026;51.494;11.974;2022-09-03T14:42:55;22.40;55.00
9971;DHT22;5026;51.494;11.974;2022-09-03T14:51:40;22.20;54.80
9971;DHT22;5026;51.494;11.974;2022-09-03T14:57:36;22.20;54.60
9971;DHT22;5026;51.494;11.974;2022-09-03T15:00:07;22.20;54.70
9971;DHT22;5026;51.494;11.974;2022-09-03T15:03:14;22.10;54.80
9971;DHT22;5026;51.494;11.974;2022-09-03T15:06:02;22.10;55.10
9971;DHT22;5026;51.494;11.974;2022-09-03T15:08:49;22.30;55.00
9971;DHT22;5026;51.494;11.974;2022-09-03T15:11:21;22.50;55.00
9971;DHT22;5026;51.494;11.974;2022-09-03T15:13:52;22.50;54.70
9971;DHT22;5026;51.494;11.974;2022-09-03T15:16:31;22.70;54.50
9971;DHT22;5026;51.494;11.974;2022-09-03T15:19:11;22.70;54.10
9971;DHT22;5026;51.494;11.974;2022-09-03T15:21:57;22.80;54.00
9971;DHT22;5026;51.494;11.974;2022-09-03T15:24:40;22.80;54.00
9971;DHT22;5026;51.494;11.974;2022-09-03T15:27:19;22.80;54.20
9971;DHT22;5026;51.494;11.974;2022-09-03T15:29:57;22.80;54.10
9971;DHT22;5026;51.494;11.974;2022-09-03T15:32:41;22.60;54.10
9971;DHT22;5026;51.494;11.974;2022-09-03T15:35:24;22.70;54.00
9971;DHT22;5026;51.494;11.974;2022-09-03T15:37:57;22.80;54.20
9971;DHT22;5026;51.494;11.974;2022-09-03T15:40:30;22.70;54.30
9971;DHT22;5026;51.494;11.974;2022-09-03T15:43:02;22.70;54.30
9971;DHT22;5026;51.494;11.974;2022-09-03T15:45:36;22.60;54.40
9971;DHT22;5026;51.494;11.974;2022-09-03T15:48:16;22.60;54.60
9971;DHT22;5026;51.494;11.974;2022-09-03T15:50:52;22.60;54.90
9971;DHT22;5026;51.494;11.974;2022-09-03T15:53:29;22.60;55.00
9971;DHT22;5026;51.494;11.974;2022-09-03T15:56:10;22.50;54.80
9971;DHT22;5026;51.494;11.974;2022-09-03T15:58:44;22.40;54.80
9971;DHT22;5026;51.494;11.974;2022-09-03T16:01:22;22.30;55.10
9971;DHT22;5026;51.494;11.974;2022-09-03T16:04:00;22.30;55.60
9971;DHT22;5026;51.494;11.974;2022-09-03T16:06:42;22.30;55.80
9971;DHT22;5026;51.494;11.974;2022-09-03T16:09:29;22.40;56.00
9971;DHT22;5026;51.494;11.974;2022-09-03T16:12:07;22.40;56.20
9971;DHT22;5026;51.494;11.974;2022-09-03T16:14:39;22.30;56.40
9971;DHT22;5026;51.494;11.974;2022-09-03T16:17:19;22.10;56.80
9971;DHT22;5026;51.494;11.974;2022-09-03T16:19:54;22.10;57.20
9971;DHT22;5026;51.494;11.974;2022-09-03T16:22:26;22.10;57.10
9971;DHT22;5026;51.494;11.974;2022-09-03T16:24:59;22.00;57.20
9971;DHT22;5026;51.494;11.974;2022-09-03T16:27:31;21.90;57.40
9971;DHT22;5026;51.494;11.974;2022-09-03T16:30:04;21.90;57.90
9971;DHT22;5026;51.494;11.974;2022-09-03T16:32:42;21.80;57.90
9971;DHT22;5026;51.494;11.974;2022-09-03T16:35:23;21.70;58.10
9971;DHT22;5026;51.494;11.974;2022-09-03T16:38:05;21.70;58.20
9971;DHT22;5026;51.494;11.974;2022-09-03T16:40:40;21.70;58.40
9971;DHT22;5026;51.494;11.974;2022-09-03T16:43:20;21.60;58.40
9971;DHT22;5026;51.494;11.974;2022-09-03T16:45:54;21.60;58.50
9971;DHT22;5026;51.494;11.974;2022-09-03T16:48:29;21.60;58.50
9971;DHT22;5026;51.494;11.974;2022-09-03T16:51:11;21.60;58.70
9971;DHT22;5026;51.494;11.974;2022-09-03T16:53:55;21.50;58.50
9971;DHT22;5026;51.494;11.974;2022-09-03T16:56:45;21.50;58.80
9971;DHT22;5026;51.494;11.974;2022-09-03T16:59:45;21.50;58.80
9971;DHT22;5026;51.494;11.974;2022-09-03T17:02:47;21.50;59.00
9971;DHT22;5026;51.494;11.974;2022-09-03T17:08:24;21.40;59.00
9971;DHT22;5026;51.494;11.974;2022-09-03T17:11:02;21.40;59.10
9971;DHT22;5026;51.494;11.974;2022-09-03T17:13:53;19.70;57.40
9971;DHT22;5026;51.494;11.974;2022-09-03T17:16:34;21.30;59.30
9971;DHT22;5026;51.494;11.974;2022-09-03T17:19:09;20.20;58.20
9971;DHT22;5026;51.494;11.974;2022-09-03T17:21:47;21.30;59.50
9971;DHT22;5026;51.494;11.974;2022-09-03T17:24:32;21.20;59.60
9971;DHT22;5026;51.494;11.974;2022-09-03T17:27:11;21.20;59.70
9971;DHT22;5026;51.494;11.974;2022-09-03T17:29:59;21.10;59.80
9971;DHT22;5026;51.494;11.974;2022-09-03T17:32:49;21.10;60.10
9971;DHT22;5026;51.494;11.974;2022-09-03T17:35:33;21.00;60.20
9971;DHT22;5026;51.494;11.974;2022-09-03T17:38:12;21.10;60.30
9971;DHT22;5026;51.494;11.974;2022-09-03T17:40:55;21.00;60.60
9971;DHT22;5026;51.494;11.974;2022-09-03T17:43:27;20.90;60.80
9971;DHT22;5026;51.494;11.974;2022-09-03T17:46:15;20.80;61.00
9971;DHT22;5026;51.494;11.974;2022-09-03T17:48:49;20.70;61.20
9971;DHT22;5026;51.494;11.974;2022-09-03T17:51:26;20.60;61.40
9971;DHT22;5026;51.494;11.974;2022-09-03T17:54:03;20.60;61.60
9971;DHT22;5026;51.494;11.974;2022-09-03T17:56:34;20.50;61.80
9971;DHT22;5026;51.494;11.974;2022-09-03T17:59:15;23.90;64.60
9971;DHT22;5026;51.494;11.974;2022-09-03T18:01:51;20.40;62.10
9971;DHT22;5026;51.494;11.974;2022-09-03T18:04:35;20.30;62.30
9971;DHT22;5026;51.494;11.974;2022-09-03T18:07:10;20.20;62.40
9971;DHT22;5026;51.494;11.974;2022-09-03T18:09:47;18.80;61.50
9971;DHT22;5026;51.494;11.974;2022-09-03T18:12:26;20.10;62.70
9971;DHT22;5026;51.494;11.974;2022-09-03T18:15:02;20.00;62.90
9971;DHT22;5026;51.494;11.974;2022-09-03T18:17:36;19.90;63.10
9971;DHT22;5026;51.494;11.974;2022-09-03T18:20:06;19.90;63.40
9971;DHT22;5026;51.494;11.974;2022-09-03T18:22:55;19.70;63.50
9971;DHT22;5026;51.494;11.974;2022-09-03T18:25:46;19.80;63.90
9971;DHT22;5026;51.494;11.974;2022-09-03T18:28:36;19.70;64.10
9971;DHT22;5026;51.494;11.974;2022-09-03T18:31:22;19.70;64.40
9971;DHT22;5026;51.494;11.974;2022-09-03T18:34:08;19.60;64.70
9971;DHT22;5026;51.494;11.974;2022-09-03T18:36:56;19.50;65.00
9971;DHT22;5026;51.494;11.974;2022-09-03T18:42:32;19.30;65.50
9971;DHT22;5026;51.494;11.974;2022-09-03T18:45:30;19.30;65.80
9971;DHT22;5026;51.494;11.974;2022-09-03T18:48:23;19.30;66.10
9971;DHT22;5026;51.494;11.974;2022-09-03T18:51:19;19.20;66.40
9971;DHT22;5026;51.494;11.974;2022-09-03T18:54:21;19.10;66.60
9971;DHT22;5026;51.494;11.974;2022-09-03T18:57:17;19.10;66.90
9971;DHT22;5026;51.494;11.974;2022-09-03T19:00:07;19.10;67.20
9971;DHT22;5026;51.494;11.974;2022-09-03T19:03:06;19.10;67.40
9971;DHT22;5026;51.494;11.974;2022-09-03T19:06:02;19.10;67.70
9971;DHT22;5026;51.494;11.974;2022-09-03T19:08:58;19.00;67.90